Time;durP1;ratioP1;P1;durP2;ratioP2;P2;SDS_P1;SDS_P2;PMS_P1;PMS_P2;Temp;Humidity;BMP_temperature;BMP_pressure;BME280_temperature;BME280_humidity;BME280_pressure;Samples;Min_cycle;Max_cycle;Signal;HPM_P1;HPM_P2
2023/02/27 00:02:24;;;;;;;1.38;0.20;;;0.50;71.40;;;;;;4976136;28;92233;-72
2023/02/27 00:04:50;;;;;;;1.63;0.30;;;0.50;71.00;;;;;;4979406;28;94182;-73
2023/02/27 00:07:16;;;;;;;1.05;0.20;;;0.50;71.10;;;;;;4981596;28;93721;-72
2023/02/27 00:09:42;;;;;;;1.30;0.20;;;0.40;71.50;;;;;;4989713;28;92739;-72
2023/02/27 00:12:08;;;;;;;1.27;0.20;;;0.50;71.20;;;;;;4992168;28;92657;-72
2023/02/27 00:14:35;;;;;;;1.35;0.20;;;0.50;71.20;;;;;;4991838;28;92501;-71
2023/02/27 00:17:01;;;;;;;2.13;0.32;;;0.40;71.20;;;;;;4988905;28;92966;-73
2023/02/27 00:19:26;;;;;;;1.38;0.20;;;0.40;71.10;;;;;;4986572;28;92183;-71
2023/02/27 00:21:52;;;;;;;0.90;0.20;;;0.50;71.20;;;;;;4981349;28;91872;-72
2023/02/27 00:24:18;;;;;;;4.55;0.22;;;0.40;71.30;;;;;;4977914;28;93225;-72
2023/02/27 00:26:44;;;;;;;1.48;0.25;;;0.40;71.70;;;;;;4974503;28;92758;-72
2023/02/27 00:29:10;;;;;;;0.80;0.20;;;0.40;71.60;;;;;;4978878;28;93468;-72
2023/02/27 00:31:35;;;;;;;2.10;0.43;;;0.40;71.40;;;;;;4972603;28;92549;-72
2023/02/27 00:34:01;;;;;;;1.55;0.30;;;0.40;72.10;;;;;;4973926;28;92669;-72
2023/02/27 00:36:27;;;;;;;1.73;0.30;;;0.40;71.70;;;;;;4974033;28;92941;-72
2023/02/27 00:38:53;;;;;;;1.83;0.28;;;0.40;71.60;;;;;;4975545;28;92042;-71
2023/02/27 00:41:18;;;;;;;2.00;0.50;;;0.40;71.60;;;;;;4979503;28;92499;-71
2023/02/27 00:43:44;;;;;;;2.00;0.32;;;0.50;71.50;;;;;;4978454;28;93093;-71
2023/02/27 00:46:10;;;;;;;1.30;0.20;;;0.50;71.50;;;;;;4979155;28;92390;-72
2023/02/27 00:48:36;;;;;;;1.90;0.50;;;0.50;72.00;;;;;;4977249;28;92065;-73
2023/02/27 00:51:01;;;;;;;2.25;0.30;;;0.40;72.10;;;;;;4976536;28;93521;-73
2023/02/27 00:53:27;;;;;;;1.00;0.20;;;0.40;72.40;;;;;;4979500;28;94274;-72
2023/02/27 00:55:53;;;;;;;1.38;0.30;;;0.40;72.50;;;;;;4976566;28;93688;-73
2023/02/27 00:58:18;;;;;;;2.08;0.30;;;0.40;72.80;;;;;;4981738;28;92438;-72
2023/02/27 01:00:44;;;;;;;1.50;0.30;;;0.40;72.60;;;;;;4979555;28;92717;-72
2023/02/27 01:03:10;;;;;;;1.50;0.30;;;0.40;73.10;;;;;;4984628;28;93233;-72
2023/02/27 01:05:35;;;;;;;1.13;0.30;;;0.40;72.00;;;;;;4976837;28;92769;-72
2023/02/27 01:08:01;;;;;;;2.15;0.40;;;0.40;71.90;;;;;;4977603;28;92557;-72
2023/02/27 01:10:27;;;;;;;2.00;0.30;;;0.40;71.60;;;;;;4978974;28;91772;-72
2023/02/27 01:12:52;;;;;;;1.65;0.38;;;0.40;71.80;;;;;;4987495;28;93016;-72
2023/02/27 01:15:18;;;;;;;1.40;0.28;;;0.40;72.30;;;;;;4977988;28;92380;-72
2023/02/27 01:17:44;;;;;;;1.83;0.30;;;0.40;72.60;;;;;;4976127;28;93597;-73
2023/02/27 01:20:11;;;;;;;1.10;0.40;;;0.30;72.60;;;;;;4979433;28;92103;-73
2023/02/27 01:22:37;;;;;;;1.40;0.30;;;0.30;72.80;;;;;;4975978;28;94572;-73
2023/02/27 01:25:03;;;;;;;1.52;0.35;;;0.30;73.10;;;;;;4977044;28;92579;-72
2023/02/27 01:27:29;;;;;;;1.38;0.35;;;0.20;73.10;;;;;;4976035;28;92666;-71
2023/02/27 01:29:54;;;;;;;1.50;0.40;;;0.20;73.50;;;;;;4983798;28;92624;-72
2023/02/27 01:32:20;;;;;;;1.80;0.25;;;0.10;73.40;;;;;;4976993;28;93165;-71
2023/02/27 01:34:46;;;;;;;2.95;0.32;;;0.10;73.50;;;;;;4982101;28;92319;-72
2023/02/27 01:37:11;;;;;;;2.35;0.35;;;0.10;73.50;;;;;;4987643;28;92443;-72
2023/02/27 01:39:37;;;;;;;1.08;0.30;;;0.10;73.10;;;;;;4973779;28;92591;-73
2023/02/27 01:42:05;;;;;;;1.80;0.32;;;0.10;72.60;;;;;;4983358;28;94925;-71
2023/02/27 01:44:50;;;;;;;1.38;0.38;;;0.20;72.30;;;;;;4979121;28;93805;-71
2023/02/27 01:47:17;;;;;;;1.65;0.38;;;0.10;72.60;;;;;;4978333;28;94414;-71
2023/02/27 01:49:43;;;;;;;1.60;0.30;;;0.20;72.20;;;;;;4993205;28;92636;-70
2023/02/27 01:52:10;;;;;;;1.45;0.30;;;0.20;72.40;;;;;;4994475;28;92438;-72
2023/02/27 01:54:40;;;;;;;1.58;0.30;;;0.20;72.10;;;;;;4976867;28;92472;-72
2023/02/27 01:57:07;;;;;;;1.83;0.22;;;0.20;72.60;;;;;;4977250;28;92466;-72
2023/02/27 01:59:40;;;;;;;1.48;0.40;;;0.20;74.70;;;;;;4975811;28;91811;-72
2023/02/27 02:02:20;;;;;;;1.48;0.30;;;0.30;71.80;;;;;;4976271;28;93200;-72
2023/02/27 02:04:47;;;;;;;1.77;0.30;;;0.40;71.30;;;;;;4975443;28;93928;-71
2023/02/27 02:07:17;;;;;;;1.17;0.30;;;0.40;71.40;;;;;;4976185;28;93018;-72
2023/02/27 02:09:46;;;;;;;;;;;0.40;71.40;;;;;;4977581;28;92531;-71
2023/02/27 02:12:14;;;;;;;1.50;0.28;;;0.40;71.40;;;;;;4978076;28;93747;-71
2023/02/27 02:14:40;;;;;;;1.02;0.30;;;0.40;71.30;;;;;;4976512;28;92457;-70
2023/02/27 02:17:15;;;;;;;1.50;0.20;;;0.30;71.50;;;;;;4968667;28;92627;-73
2023/02/27 02:20:12;;;;;;;1.25;0.30;;;0.40;71.70;;;;;;4971232;28;92529;-71
2023/02/27 02:23:12;;;;;;;1.95;0.20;;;0.40;71.20;;;;;;4980742;28;92779;-71
2023/02/27 02:26:18;;;;;;;1.50;0.30;;;0.30;71.10;;;;;;4977589;28;91779;-71
2023/02/27 02:29:17;;;;;;;1.30;0.30;;;0.30;72.00;;;;;;4970370;28;92554;-72
2023/02/27 02:32:07;;;;;;;2.13;0.32;;;0.40;71.60;;;;;;4979314;28;92121;-71
2023/02/27 02:34:56;;;;;;;1.55;0.30;;;0.30;71.30;;;;;;4971414;28;94806;-71
2023/02/27 02:37:39;;;;;;;2.33;0.40;;;0.30;71.60;;;;;;4975363;28;93079;-72
2023/02/27 02:40:18;;;;;;;1.20;0.20;;;0.30;71.80;;;;;;4978287;28;92542;-72
2023/02/27 02:43:04;;;;;;;1.67;0.30;;;0.20;72.10;;;;;;4974568;28;92627;-72
2023/02/27 02:45:46;;;;;;;1.85;0.40;;;0.20;72.10;;;;;;4978670;28;93201;-71
2023/02/27 02:48:24;;;;;;;2.25;0.38;;;0.20;72.30;;;;;;4976589;28;94298;-72
2023/02/27 02:51:10;;;;;;;1.40;0.30;;;0.20;72.50;;;;;;4973021;28;92462;-73
2023/02/27 02:53:44;;;;;;;2.08;0.35;;;0.20;72.10;;;;;;4984332;28;91848;-73
2023/02/27 02:56:26;;;;;;;1.80;0.40;;;0.20;72.20;;;;;;4974528;28;93722;-72
2023/02/27 02:59:16;;;;;;;1.40;0.40;;;0.20;72.30;;;;;;4975661;28;92911;-73
2023/02/27 03:01:44;;;;;;;2.85;0.30;;;0.30;72.40;;;;;;4974516;28;93463;-72
2023/02/27 03:04:42;;;;;;;2.20;0.30;;;0.30;72.20;;;;;;4973922;28;93410;-72
2023/02/27 03:07:20;;;;;;;1.90;0.50;;;0.20;72.30;;;;;;4971174;28;93276;-71
2023/02/27 03:09:55;;;;;;;1.23;0.25;;;0.20;72.50;;;;;;4975552;28;92926;-71
2023/02/27 03:12:24;;;;;;;1.63;0.30;;;0.20;72.40;;;;;;4974660;28;92125;-73
2023/02/27 03:15:15;;;;;;;1.40;0.30;;;0.20;72.40;;;;;;4975774;28;92459;-71
2023/02/27 03:17:59;;;;;;;1.63;0.30;;;0.20;72.20;;;;;;4969107;28;93504;-71
2023/02/27 03:20:30;;;;;;;2.08;0.50;;;0.20;72.10;;;;;;4975705;28;93214;-73
2023/02/27 03:23:01;;;;;;;1.85;0.20;;;0.30;72.10;;;;;;4973249;28;93189;-72
2023/02/27 03:25:27;;;;;;;;;;;0.20;71.90;;;;;;4981232;28;92592;-71
2023/02/27 03:27:58;;;;;;;3.10;0.20;;;0.20;72.00;;;;;;4976101;28;93332;-71
2023/02/27 03:30:35;;;;;;;1.50;0.30;;;0.30;72.10;;;;;;4975064;28;93788;-73
2023/02/27 03:33:15;;;;;;;1.77;0.30;;;0.30;72.10;;;;;;4979237;28;92161;-72
2023/02/27 03:35:53;;;;;;;1.70;0.30;;;0.30;72.20;;;;;;4973672;28;92803;-71
2023/02/27 03:38:31;;;;;;;1.00;0.20;;;0.30;71.90;;;;;;4973679;28;94608;-72
2023/02/27 03:41:23;;;;;;;3.30;0.30;;;0.30;71.90;;;;;;4974743;28;92449;-72
2023/02/27 03:44:06;;;;;;;1.45;0.40;;;0.30;71.70;;;;;;4973535;28;93711;-72
2023/02/27 03:46:33;;;;;;;1.08;0.20;;;0.30;72.20;;;;;;4968183;28;91641;-73
2023/02/27 03:48:59;;;;;;;1.55;0.30;;;0.30;71.90;;;;;;4976928;28;93912;-72
2023/02/27 03:51:27;;;;;;;1.85;0.30;;;0.30;71.80;;;;;;4979105;28;92882;-73
2023/02/27 03:54:04;;;;;;;2.20;0.38;;;0.30;72.20;;;;;;4990204;28;93179;-74
2023/02/27 03:56:59;;;;;;;1.85;0.30;;;0.30;71.50;;;;;;4974800;28;92493;-72
2023/02/27 03:59:25;;;;;;;1.42;0.30;;;0.30;71.30;;;;;;4973637;28;94115;-72
2023/02/27 04:01:53;;;;;;;2.03;0.30;;;0.30;71.70;;;;;;4970575;28;92808;-71
2023/02/27 04:04:20;;;;;;;1.15;0.20;;;0.30;71.70;;;;;;4976579;28;92558;-72
2023/02/27 04:10:11;;;;;;;1.30;0.32;;;0.30;71.70;;;;;;4965069;28;92446;-72
2023/02/27 04:13:14;;;;;;;1.90;0.40;;;0.40;71.80;;;;;;4974362;28;92898;-72
2023/02/27 04:16:14;;;;;;;1.35;0.30;;;0.30;71.90;;;;;;4989774;28;92750;-73
2023/02/27 04:19:11;;;;;;;1.05;0.20;;;0.30;72.30;;;;;;4977282;28;92531;-73
2023/02/27 04:21:45;;;;;;;1.50;0.25;;;0.30;72.20;;;;;;4975112;28;94603;-70
2023/02/27 04:24:11;;;;;;;1.88;0.45;;;0.30;72.20;;;;;;4975151;28;93947;-70
2023/02/27 04:26:50;;;;;;;3.00;0.40;;;0.20;72.00;;;;;;4979042;28;93018;-72
2023/02/27 04:29:42;;;;;;;2.20;0.68;;;0.20;72.00;;;;;;4990256;28;91997;-71
2023/02/27 04:32:24;;;;;;;1.90;0.52;;;0.20;72.20;;;;;;4968397;28;94409;-72
2023/02/27 04:34:59;;;;;;;1.75;0.40;;;0.30;72.10;;;;;;4964894;28;94049;-71
2023/02/27 04:37:50;;;;;;;2.33;0.47;;;0.30;71.90;;;;;;4966031;28;94435;-71
2023/02/27 04:40:23;;;;;;;1.45;0.20;;;0.30;71.80;;;;;;4982146;28;91772;-71
2023/02/27 04:42:55;;;;;;;1.77;0.30;;;0.30;72.00;;;;;;4969862;28;93252;-71
2023/02/27 04:45:24;;;;;;;1.42;0.35;;;0.30;71.90;;;;;;4973956;28;94421;-71
2023/02/27 04:48:05;;;;;;;1.58;0.30;;;0.30;72.50;;;;;;4976528;28;93479;-71
2023/02/27 04:50:44;;;;;;;1.88;0.50;;;0.30;72.20;;;;;;4974399;28;93341;-71
2023/02/27 04:53:16;;;;;;;1.73;0.30;;;0.30;72.20;;;;;;4971174;28;93586;-71
2023/02/27 04:55:47;;;;;;;3.33;0.60;;;0.30;72.30;;;;;;4976031;28;93834;-72
2023/02/27 04:58:20;;;;;;;1.92;0.40;;;0.30;72.30;;;;;;4965955;28;93320;-72
2023/02/27 05:00:54;;;;;;;2.00;0.40;;;0.40;72.10;;;;;;4975524;28;92655;-72
2023/02/27 05:03:39;;;;;;;2.25;0.57;;;0.40;72.20;;;;;;4972288;28;94257;-71
2023/02/27 05:06:06;;;;;;;3.08;0.50;;;0.40;72.50;;;;;;4973993;28;92978;-71
2023/02/27 05:08:58;;;;;;;1.75;0.40;;;0.40;72.00;;;;;;4971226;28;92511;-72
2023/02/27 05:11:46;;;;;;;4.32;0.50;;;0.50;72.00;;;;;;4965555;28;92567;-71
2023/02/27 05:14:17;;;;;;;3.15;0.80;;;0.50;71.90;;;;;;4974838;28;94209;-72
2023/02/27 05:17:01;;;;;;;2.80;0.52;;;0.50;72.00;;;;;;4986966;28;93543;-72
2023/02/27 05:19:28;;;;;;;2.53;0.60;;;0.50;71.90;;;;;;4974233;28;92593;-72
2023/02/27 05:22:17;;;;;;;2.38;0.50;;;0.50;71.80;;;;;;4975111;28;92430;-72
2023/02/27 05:24:46;;;;;;;2.53;0.55;;;0.60;71.50;;;;;;4967134;28;92688;-72
2023/02/27 05:27:36;;;;;;;2.42;0.60;;;0.60;71.90;;;;;;4975816;28;92792;-72
2023/02/27 05:30:18;;;;;;;2.03;0.43;;;0.50;72.00;;;;;;4985652;28;92669;-72
2023/02/27 05:33:00;;;;;;;2.83;0.45;;;0.50;71.80;;;;;;4968188;28;91896;-72
2023/02/27 05:35:48;;;;;;;2.53;0.40;;;0.50;71.90;;;;;;4976594;28;93420;-72
2023/02/27 05:38:25;;;;;;;2.22;0.50;;;0.50;71.60;;;;;;4977057;28;92442;-72
2023/02/27 05:41:04;;;;;;;3.75;0.55;;;0.60;72.00;;;;;;4972872;28;93348;-72
2023/02/27 05:43:55;;;;;;;2.42;0.50;;;0.60;72.10;;;;;;4968537;28;92653;-72
2023/02/27 05:46:26;;;;;;;1.90;0.50;;;0.60;72.20;;;;;;4972379;28;94607;-71
2023/02/27 05:49:03;;;;;;;2.85;0.70;;;0.50;72.20;;;;;;4981133;28;93696;-72
2023/02/27 05:51:32;;;;;;;1.73;0.43;;;0.50;72.30;;;;;;4982760;28;92495;-71
2023/02/27 05:54:36;;;;;;;6.75;0.40;;;0.50;71.90;;;;;;4986671;28;94507;-72
2023/02/27 05:57:09;;;;;;;2.10;0.35;;;0.50;72.40;;;;;;4996267;28;93167;-73
2023/02/27 05:59:42;;;;;;;4.90;0.50;;;0.50;72.20;;;;;;4977212;28;93029;-71
2023/02/27 06:02:09;;;;;;;4.97;0.60;;;0.50;72.60;;;;;;4969368;28;93272;-72
2023/02/27 06:04:36;;;;;;;2.10;0.60;;;0.50;72.10;;;;;;4973736;28;92486;-72
2023/02/27 06:07:03;;;;;;;2.30;0.70;;;0.60;72.30;;;;;;4970062;28;94650;-73
2023/02/27 06:09:30;;;;;;;4.93;0.60;;;0.60;72.20;;;;;;4991236;28;93843;-71
2023/02/27 06:11:57;;;;;;;2.13;0.52;;;0.70;72.10;;;;;;4981953;28;92444;-71
2023/02/27 06:14:23;;;;;;;2.30;0.70;;;0.70;71.90;;;;;;4977757;28;92601;-71
2023/02/27 06:16:49;;;;;;;2.20;0.57;;;0.80;72.10;;;;;;4972298;28;92783;-73
2023/02/27 06:19:14;;;;;;;2.63;0.60;;;0.80;71.70;;;;;;4975828;28;92373;-72
2023/02/27 06:21:40;;;;;;;3.97;0.93;;;0.90;71.10;;;;;;4978110;28;92546;-72
2023/02/27 06:24:06;;;;;;;2.85;0.80;;;0.90;71.50;;;;;;4973594;28;91788;-72
2023/02/27 06:26:32;;;;;;;2.60;0.70;;;0.90;71.00;;;;;;4969139;28;93747;-71
2023/02/27 06:28:58;;;;;;;4.43;0.70;;;1.00;71.20;;;;;;4972968;28;92269;-72
2023/02/27 06:31:24;;;;;;;6.40;0.75;;;1.10;70.40;;;;;;4978959;28;93941;-71
2023/02/27 06:33:49;;;;;;;2.47;0.75;;;1.20;70.20;;;;;;4976634;28;92342;-71
2023/02/27 06:36:15;;;;;;;2.83;0.70;;;1.30;70.30;;;;;;4974477;28;94338;-73
2023/02/27 06:38:41;;;;;;;2.95;0.68;;;1.40;69.50;;;;;;4985458;28;93208;-73
2023/02/27 06:41:06;;;;;;;6.05;0.90;;;1.50;69.10;;;;;;4974023;28;92522;-73
2023/02/27 06:43:33;;;;;;;2.33;0.88;;;1.70;69.80;;;;;;4979429;28;92759;-74
2023/02/27 06:45:59;;;;;;;1.90;0.60;;;1.90;69.00;;;;;;4977298;28;92645;-71
2023/02/27 06:48:25;;;;;;;2.67;0.90;;;2.10;68.90;;;;;;4975766;28;92263;-74
2023/02/27 06:50:55;;;;;;;2.42;0.60;;;2.40;67.20;;;;;;4976613;28;92994;-73
2023/02/27 06:53:22;;;;;;;2.30;0.60;;;2.70;65.80;;;;;;4975554;28;92809;-72
2023/02/27 06:55:48;;;;;;;2.47;1.00;;;3.40;64.80;;;;;;4975182;28;94185;-72
2023/02/27 06:58:14;;;;;;;2.25;0.60;;;4.50;62.70;;;;;;4975191;28;94382;-73
2023/02/27 07:00:40;;;;;;;3.25;1.00;;;5.40;59.00;;;;;;4978728;28;92099;-73
2023/02/27 07:03:06;;;;;;;1.95;0.52;;;6.30;57.20;;;;;;4976511;28;93023;-73
2023/02/27 07:05:32;;;;;;;3.55;0.90;;;6.90;54.80;;;;;;4972595;28;94096;-73
2023/02/27 07:07:58;;;;;;;2.58;0.60;;;7.30;53.30;;;;;;4976208;28;94474;-71
2023/02/27 07:10:24;;;;;;;3.90;0.82;;;7.20;53.20;;;;;;4976125;28;92175;-71
2023/02/27 07:12:50;;;;;;;2.88;1.00;;;7.30;53.00;;;;;;4986703;28;91492;-71
2023/02/27 07:15:16;;;;;;;2.85;0.80;;;7.50;53.00;;;;;;4994168;28;93152;-73
2023/02/27 07:17:42;;;;;;;2.05;0.85;;;7.70;52.00;;;;;;4976968;28;92461;-73
2023/02/27 07:20:09;;;;;;;3.25;0.80;;;7.80;53.10;;;;;;4975343;28;93450;-73
2023/02/27 07:22:36;;;;;;;5.00;0.90;;;7.70;51.80;;;;;;4975971;28;93002;-73
2023/02/27 07:25:02;;;;;;;2.58;0.82;;;7.40;52.80;;;;;;4975824;28;93035;-73
2023/02/27 07:27:28;;;;;;;5.25;0.95;;;7.40;53.10;;;;;;4986190;28;92870;-73
2023/02/27 07:29:54;;;;;;;3.22;0.77;;;7.40;52.10;;;;;;4975282;28;92590;-73
2023/02/27 07:32:19;;;;;;;5.70;0.80;;;7.70;52.20;;;;;;4976046;28;92567;-73
2023/02/27 07:34:45;;;;;;;3.10;0.90;;;7.80;51.70;;;;;;4977165;28;92826;-73
2023/02/27 07:37:11;;;;;;;3.17;0.95;;;8.00;51.30;;;;;;4974621;28;92904;-73
2023/02/27 07:39:36;;;;;;;4.22;0.80;;;8.30;50.80;;;;;;4974139;28;92242;-73
2023/02/27 07:42:02;;;;;;;4.88;0.85;;;8.40;50.40;;;;;;4983706;28;94179;-72
2023/02/27 07:44:28;;;;;;;4.15;1.20;;;8.60;50.00;;;;;;4977913;28;94080;-72
2023/02/27 07:46:53;;;;;;;3.47;1.10;;;8.90;49.40;;;;;;4977760;28;92756;-73
2023/02/27 07:49:19;;;;;;;3.78;0.73;;;9.00;49.70;;;;;;4974343;28;92565;-72
2023/02/27 07:51:45;;;;;;;2.75;1.00;;;9.20;49.40;;;;;;4975480;28;92519;-73
2023/02/27 07:54:10;;;;;;;2.15;0.90;;;9.40;48.90;;;;;;4975009;28;92670;-73
2023/02/27 07:56:36;;;;;;;1.80;0.70;;;9.50;48.50;;;;;;4974854;28;93804;-71
2023/02/27 07:59:02;;;;;;;3.80;0.80;;;10.00;47.30;;;;;;4976709;28;92591;-73
2023/02/27 08:01:28;;;;;;;2.70;0.90;;;10.60;46.30;;;;;;4976534;28;91846;-71
2023/02/27 08:03:55;;;;;;;2.22;0.73;;;11.40;45.70;;;;;;4974450;28;93121;-73
2023/02/27 08:06:21;;;;;;;4.72;0.93;;;11.90;44.10;;;;;;4973156;28;93540;-73
2023/02/27 08:08:47;;;;;;;1.73;0.60;;;12.10;43.60;;;;;;4972645;28;95391;-73
2023/02/27 08:11:12;;;;;;;8.57;3.80;;;12.20;43.70;;;;;;4975179;28;92569;-71
2023/02/27 08:13:38;;;;;;;2.45;1.00;;;12.20;43.50;;;;;;4974071;28;94127;-73
2023/02/27 08:16:04;;;;;;;3.63;1.23;;;12.40;43.20;;;;;;4974277;28;92431;-73
2023/02/27 08:18:30;;;;;;;2.22;0.90;;;12.70;42.10;;;;;;4973574;28;92348;-73
2023/02/27 08:20:56;;;;;;;2.33;0.73;;;12.20;41.50;;;;;;4975561;28;92618;-74
2023/02/27 08:23:21;;;;;;;2.58;0.80;;;11.60;42.60;;;;;;4974305;28;93173;-73
2023/02/27 08:25:48;;;;;;;2.58;0.68;;;11.00;43.90;;;;;;4975192;28;93377;-73
2023/02/27 08:28:13;;;;;;;4.45;0.70;;;10.60;44.40;;;;;;4974603;28;92475;-73
2023/02/27 08:30:39;;;;;;;1.80;0.70;;;10.30;45.00;;;;;;4973380;28;92381;-73
2023/02/27 08:33:05;;;;;;;2.25;0.63;;;10.00;45.90;;;;;;4972177;28;93661;-73
2023/02/27 08:35:31;;;;;;;2.80;0.80;;;9.70;46.10;;;;;;4973150;28;93216;-73
2023/02/27 08:37:56;;;;;;;1.80;0.70;;;9.50;46.90;;;;;;4979167;28;92823;-73
2023/02/27 08:40:22;;;;;;;2.20;0.70;;;9.40;46.80;;;;;;4974724;28;93152;-73
2023/02/27 08:42:50;;;;;;;3.00;0.70;;;9.40;47.00;;;;;;4973402;28;93291;-73
2023/02/27 08:45:16;;;;;;;2.83;0.90;;;9.10;47.30;;;;;;4974153;28;92615;-72
2023/02/27 08:47:44;;;;;;;2.65;0.70;;;9.00;48.40;;;;;;4973650;28;92659;-72
2023/02/27 08:50:11;;;;;;;2.35;0.70;;;8.70;48.50;;;;;;4975291;28;91512;-73
2023/02/27 08:52:37;;;;;;;1.90;0.65;;;8.40;49.40;;;;;;4975789;28;92484;-72
2023/02/27 08:55:03;;;;;;;3.70;0.90;;;8.50;49.20;;;;;;4978745;28;93160;-73
2023/02/27 08:57:29;;;;;;;4.65;0.82;;;8.50;48.60;;;;;;4979507;28;93741;-73
2023/02/27 08:59:55;;;;;;;7.10;0.90;;;8.40;49.40;;;;;;4972423;28;92689;-73
2023/02/27 09:02:24;;;;;;;4.57;0.90;;;8.50;49.30;;;;;;4971080;28;93231;-73
2023/02/27 09:04:50;;;;;;;4.60;0.70;;;8.30;49.60;;;;;;4965292;28;92396;-72
2023/02/27 09:07:16;;;;;;;2.20;0.55;;;8.20;49.70;;;;;;4966138;28;93083;-72
2023/02/27 09:09:42;;;;;;;2.72;0.55;;;8.10;49.80;;;;;;4966652;28;92652;-73
2023/02/27 09:12:08;;;;;;;2.22;0.80;;;7.90;50.10;;;;;;4961975;28;93450;-73
2023/02/27 09:14:34;;;;;;;2.13;0.60;;;7.70;50.40;;;;;;4966457;28;92399;-72
2023/02/27 09:16:59;;;;;;;2.97;0.77;;;7.70;50.70;;;;;;4963658;28;92587;-72
2023/02/27 09:19:25;;;;;;;2.63;0.90;;;7.50;51.60;;;;;;4964560;28;92543;-73
2023/02/27 09:21:51;;;;;;;2.22;0.70;;;7.40;50.90;;;;;;4961700;28;94241;-72
2023/02/27 09:24:17;;;;;;;4.32;1.00;;;7.20;51.70;;;;;;4966373;28;93985;-73
2023/02/27 09:26:42;;;;;;;2.83;0.80;;;7.00;51.90;;;;;;4990663;28;92798;-72
2023/02/27 09:29:08;;;;;;;3.55;0.80;;;7.10;52.20;;;;;;4975296;28;92568;-73
2023/02/27 09:31:34;;;;;;;4.13;0.65;;;7.00;52.90;;;;;;4977270;28;92843;-72
2023/02/27 09:34:00;;;;;;;2.42;0.95;;;6.90;52.50;;;;;;4991543;28;92472;-72
2023/02/27 09:36:26;;;;;;;2.95;0.63;;;6.70;53.10;;;;;;4982284;28;92379;-73
2023/02/27 09:38:52;;;;;;;2.40;0.60;;;6.60;53.40;;;;;;4978241;28;91834;-72
2023/02/27 09:41:49;;;;;;;1.85;0.65;;;6.40;54.00;;;;;;4977472;28;92861;-73
2023/02/27 09:44:20;;;;;;;2.33;0.60;;;6.10;54.30;;;;;;4974788;28;92713;-72
2023/02/27 09:46:46;;;;;;;2.13;0.80;;;6.10;55.10;;;;;;4993423;28;93364;-72
2023/02/27 09:49:17;;;;;;;7.20;0.95;;;6.20;54.70;;;;;;4989032;28;92797;-72
2023/02/27 09:51:43;;;;;;;2.67;0.70;;;6.30;54.30;;;;;;4983271;28;93225;-72
2023/02/27 09:54:10;;;;;;;1.50;0.52;;;6.10;54.40;;;;;;4977219;28;92049;-72
2023/02/27 09:56:47;;;;;;;1.80;0.65;;;6.10;54.80;;;;;;4977410;28;92591;-72
2023/02/27 09:59:41;;;;;;;2.72;0.73;;;6.00;54.90;;;;;;4979686;28;92430;-72
2023/02/27 10:02:29;;;;;;;3.85;0.77;;;6.00;55.20;;;;;;4991735;28;93564;-72
2023/02/27 10:05:22;;;;;;;2.35;0.90;;;6.30;55.20;;;;;;4981904;28;92902;-72
2023/02/27 10:07:55;;;;;;;4.95;0.90;;;6.30;54.50;;;;;;4963389;28;92526;-73
2023/02/27 10:10:43;;;;;;;4.03;0.45;;;6.40;54.50;;;;;;4977234;28;92360;-72
2023/02/27 10:13:47;;;;;;;2.67;0.65;;;6.30;53.80;;;;;;4994137;28;93669;-72
2023/02/27 10:16:17;;;;;;;2.05;0.55;;;6.30;54.00;;;;;;4985897;28;93876;-72
2023/02/27 10:19:03;;;;;;;2.17;0.63;;;6.30;54.30;;;;;;4981321;28;92538;-72
2023/02/27 10:21:56;;;;;;;2.50;0.60;;;6.40;54.50;;;;;;4977350;28;92328;-72
2023/02/27 10:24:48;;;;;;;4.10;0.63;;;6.30;54.70;;;;;;4965431;28;93649;-72
2023/02/27 10:27:18;;;;;;;2.88;0.50;;;6.30;54.50;;;;;;4982006;28;92803;-72
2023/02/27 10:29:44;;;;;;;2.55;0.80;;;6.30;54.70;;;;;;4996670;28;92094;-72
2023/02/27 10:32:17;;;;;;;2.00;0.50;;;6.20;54.70;;;;;;4997108;28;91556;-72
2023/02/27 10:34:48;;;;;;;2.33;1.00;;;6.30;54.50;;;;;;4988212;28;93971;-72
2023/02/27 10:37:17;;;;;;;2.50;0.70;;;6.20;54.80;;;;;;4976044;28;92781;-72
2023/02/27 10:40:03;;;;;;;2.15;0.63;;;6.20;56.20;;;;;;4976249;28;93301;-72
2023/02/27 10:42:35;;;;;;;2.70;0.70;;;6.30;54.80;;;;;;4976489;28;92176;-72
2023/02/27 10:45:02;;;;;;;3.25;0.55;;;6.30;54.80;;;;;;4980043;28;93056;-72
2023/02/27 10:47:28;;;;;;;2.97;0.60;;;6.20;54.90;;;;;;4979125;28;93455;-73
2023/02/27 10:49:54;;;;;;;3.67;0.73;;;6.20;55.00;;;;;;4973184;28;92528;-73
2023/02/27 10:52:20;;;;;;;3.05;0.60;;;6.30;55.10;;;;;;4971909;28;94119;-72
2023/02/27 10:54:46;;;;;;;2.80;0.88;;;6.20;55.30;;;;;;4975174;28;94061;-72
2023/02/27 10:57:22;;;;;;;2.47;0.70;;;6.20;55.50;;;;;;4973360;28;95178;-73
2023/02/27 10:59:54;;;;;;;2.22;0.60;;;6.20;55.20;;;;;;4969705;28;92412;-72
2023/02/27 11:02:37;;;;;;;4.10;0.90;;;6.10;55.50;;;;;;4985146;28;93139;-72
2023/02/27 11:05:24;;;;;;;3.20;0.88;;;6.20;56.50;;;;;;4980825;28;93801;-73
2023/02/27 11:07:50;;;;;;;4.25;1.08;;;6.20;56.90;;;;;;4966472;28;93847;-73
2023/02/27 11:10:20;;;;;;;3.20;0.90;;;6.20;56.90;;;;;;4986700;28;92532;-73
2023/02/27 11:13:05;;;;;;;4.07;1.05;;;6.10;57.30;;;;;;4978908;28;92234;-72
2023/02/27 11:15:36;;;;;;;3.53;1.10;;;6.20;57.00;;;;;;4970570;28;93583;-73
2023/02/27 11:18:28;;;;;;;4.18;0.90;;;6.30;56.80;;;;;;4965951;28;94854;-72
2023/02/27 11:21:13;;;;;;;7.50;2.10;;;6.50;56.00;;;;;;4976589;28;92313;-73
2023/02/27 11:23:59;;;;;;;2.97;0.60;;;6.40;55.30;;;;;;4966927;28;92973;-73
2023/02/27 11:26:30;;;;;;;4.80;1.00;;;6.30;56.20;;;;;;4963943;28;93089;-73
2023/02/27 11:29:13;;;;;;;3.72;0.93;;;6.30;56.90;;;;;;4962168;28;92952;-72
2023/02/27 11:32:09;;;;;;;3.60;0.70;;;6.40;58.40;;;;;;4956467;28;95624;-73
2023/02/27 11:34:46;;;;;;;2.58;0.93;;;6.30;56.50;;;;;;4959676;28;92101;-73
2023/02/27 11:37:29;;;;;;;;;;;6.20;55.80;;;;;;4964376;28;93324;-72
2023/02/27 11:40:13;;;;;;;3.15;0.90;;;6.10;56.70;;;;;;4966036;28;93045;-73
2023/02/27 11:42:49;;;;;;;3.05;1.15;;;6.20;57.20;;;;;;4963881;28;92638;-73
2023/02/27 11:45:21;;;;;;;3.30;0.90;;;6.20;57.40;;;;;;4957000;28;95228;-72
2023/02/27 11:47:50;;;;;;;3.33;1.08;;;6.20;58.20;;;;;;4958955;28;93923;-72
2023/02/27 11:50:51;;;;;;;6.28;1.00;;;6.10;58.60;;;;;;4959220;28;93438;-73
2023/02/27 11:53:35;;;;;;;3.58;1.00;;;6.10;58.50;;;;;;4934643;28;93059;-73
2023/02/27 11:56:04;;;;;;;3.95;0.77;;;6.10;59.90;;;;;;4954357;28;93592;-73
2023/02/27 11:58:39;;;;;;;5.75;1.25;;;5.80;59.90;;;;;;4953776;28;94467;-72
2023/02/27 12:01:22;;;;;;;3.30;1.40;;;5.80;61.20;;;;;;4962374;28;93356;-73
2023/02/27 12:04:25;;;;;;;2.65;1.10;;;5.70;60.50;;;;;;4956943;28;95011;-73
2023/02/27 12:07:04;;;;;;;2.90;0.80;;;5.70;60.70;;;;;;4962574;28;92380;-72
2023/02/27 12:09:40;;;;;;;3.55;1.30;;;5.60;60.20;;;;;;4964076;28;92778;-73
2023/02/27 12:12:21;;;;;;;3.92;1.08;;;5.50;60.80;;;;;;4973465;28;93455;-72
2023/02/27 12:14:55;;;;;;;4.78;1.33;;;5.70;61.20;;;;;;4970922;28;92613;-73
2023/02/27 12:17:30;;;;;;;5.10;1.73;;;5.70;59.80;;;;;;4967788;28;92217;-72
2023/02/27 12:20:34;;;;;;;4.35;1.40;;;5.80;60.30;;;;;;4972386;28;93209;-73
2023/02/27 12:23:02;;;;;;;4.50;1.20;;;5.90;59.90;;;;;;4969204;28;92834;-73
2023/02/27 12:25:58;;;;;;;5.18;1.42;;;5.90;61.40;;;;;;4979176;28;93388;-72
2023/02/27 12:28:53;;;;;;;2.47;0.75;;;6.10;61.70;;;;;;4965747;28;92382;-73
2023/02/27 12:31:21;;;;;;;2.22;0.50;;;6.00;58.80;;;;;;4973017;28;94127;-72
2023/02/27 12:34:16;;;;;;;3.17;1.00;;;5.80;58.50;;;;;;4974320;28;92415;-72
2023/02/27 12:36:42;;;;;;;2.42;0.90;;;5.60;61.00;;;;;;4976888;28;92726;-72
2023/02/27 12:39:20;;;;;;;2.78;0.85;;;5.70;61.10;;;;;;4996941;28;92640;-72
2023/02/27 12:42:13;;;;;;;2.30;0.80;;;5.80;60.70;;;;;;4984280;28;92716;-73
2023/02/27 12:45:07;;;;;;;2.88;1.20;;;5.70;61.40;;;;;;4982707;28;93590;-72
2023/02/27 12:47:50;;;;;;;5.65;1.83;;;5.60;62.80;;;;;;4970068;28;92660;-72
2023/02/27 12:50:21;;;;;;;7.68;2.40;;;5.60;63.70;;;;;;4980958;28;92622;-72
2023/02/27 12:53:08;;;;;;;7.07;2.67;;;5.60;64.40;;;;;;4989869;28;94019;-73
2023/02/27 12:55:42;;;;;;;7.50;1.67;;;5.70;63.70;;;;;;4976964;28;92506;-72
2023/02/27 12:58:23;;;;;;;5.75;1.80;;;5.60;63.90;;;;;;4983341;28;92550;-72
2023/02/27 13:00:59;;;;;;;4.55;1.17;;;5.40;63.30;;;;;;4974948;28;92578;-72
2023/02/27 13:03:40;;;;;;;5.07;1.40;;;5.20;63.20;;;;;;4964746;28;92407;-72
2023/02/27 13:06:35;;;;;;;5.78;1.60;;;5.20;65.10;;;;;;4976671;28;92864;-72
2023/02/27 13:09:23;;;;;;;3.80;1.20;;;5.10;64.90;;;;;;4976418;28;94431;-72
2023/02/27 13:12:20;;;;;;;6.13;1.45;;;5.10;65.00;;;;;;4972824;28;92959;-72
2023/02/27 13:15:18;;;;;;;4.97;1.10;;;5.10;66.10;;;;;;4957267;28;93237;-73
2023/02/27 13:17:48;;;;;;;3.88;1.40;;;5.20;64.10;;;;;;4973390;28;92396;-73
2023/02/27 13:20:20;;;;;;;3.08;0.98;;;5.20;64.90;;;;;;4978638;28;93413;-72
2023/02/27 13:22:58;;;;;;;5.65;1.38;;;5.20;64.60;;;;;;4970495;28;92426;-72
2023/02/27 13:25:24;;;;;;;3.08;1.23;;;5.20;65.10;;;;;;4972654;28;93750;-72
2023/02/27 13:28:00;;;;;;;3.92;1.50;;;5.20;65.50;;;;;;4977102;28;92576;-72
2023/02/27 13:30:37;;;;;;;2.63;0.60;;;5.30;65.60;;;;;;4980590;28;92451;-72
2023/02/27 13:33:30;;;;;;;3.83;1.10;;;5.30;64.90;;;;;;4997543;28;92420;-72
2023/02/27 13:36:08;;;;;;;2.45;0.73;;;5.30;64.40;;;;;;4979574;28;93265;-72